createdAt,value
2022-08-22T00:00:31.523Z,22
2022-08-22T00:01:31.523Z,18
2022-08-22T00:02:31.524Z,20
2022-08-22T00:03:31.532Z,21
2022-08-22T00:04:31.524Z,15
2022-08-22T00:05:31.525Z,17
2022-08-22T00:06:31.525Z,17
2022-08-22T00:07:31.526Z,17
2022-08-22T00:08:31.526Z,17
2022-08-22T00:09:31.527Z,14
2022-08-22T00:10:31.504Z,16
2022-08-22T00:11:31.505Z,14
2022-08-22T00:12:31.505Z,14
2022-08-22T00:13:31.505Z,15
2022-08-22T00:14:31.506Z,13
2022-08-22T00:15:31.506Z,13
2022-08-22T00:16:31.529Z,14
2022-08-22T00:17:31.529Z,17
2022-08-22T00:18:31.530Z,13
2022-08-22T00:19:31.530Z,13
2022-08-22T00:20:31.530Z,13
2022-08-22T00:21:31.531Z,13
2022-08-22T00:22:31.531Z,13
2022-08-22T00:23:31.532Z,12
2022-08-22T00:24:31.532Z,12
2022-08-22T00:25:31.510Z,15
2022-08-22T00:26:31.510Z,13
2022-08-22T00:27:31.511Z,14
2022-08-22T00:28:31.511Z,13
2022-08-22T00:29:31.511Z,14
2022-08-22T00:30:31.512Z,12
2022-08-22T00:31:31.534Z,14
2022-08-22T00:32:31.535Z,13
2022-08-22T00:33:31.535Z,13
2022-08-22T00:34:31.536Z,12
2022-08-22T00:35:31.536Z,14
2022-08-22T00:36:31.536Z,13
2022-08-22T00:37:31.537Z,13
2022-08-22T00:39:31.538Z,15
2022-08-22T00:40:31.563Z,12
2022-08-22T00:41:31.516Z,13
2022-08-22T00:42:31.516Z,16
2022-08-22T00:43:31.517Z,13
2022-08-22T00:44:31.517Z,14
2022-08-22T00:45:31.517Z,12
2022-08-22T00:46:31.540Z,12
2022-08-22T00:47:31.540Z,12
2022-08-22T00:48:31.541Z,12
2022-08-22T00:49:31.549Z,14
2022-08-22T00:50:31.542Z,14
2022-08-22T00:51:31.542Z,12
2022-08-22T00:52:31.542Z,12
2022-08-22T00:53:31.543Z,12
2022-08-22T00:54:31.543Z,12
2022-08-22T00:55:31.543Z,12
2022-08-22T00:56:31.521Z,12
2022-08-22T00:57:31.522Z,16
2022-08-22T00:58:31.522Z,13
2022-08-22T00:59:31.522Z,13
2022-08-22T01:00:31.523Z,14
2022-08-22T01:01:31.546Z,15
2022-08-22T01:02:31.546Z,14
2022-08-22T01:03:31.546Z,17
2022-08-22T01:04:31.555Z,15
2022-08-22T01:05:31.547Z,15
2022-08-22T01:06:31.547Z,16
2022-08-22T01:07:31.548Z,15
2022-08-22T01:08:31.548Z,14
2022-08-22T01:09:31.549Z,15
2022-08-22T01:10:31.549Z,16
2022-08-22T01:11:31.527Z,13
2022-08-22T01:12:31.527Z,15
2022-08-22T01:13:31.528Z,13
2022-08-22T01:14:31.528Z,15
2022-08-22T01:15:31.528Z,17
2022-08-22T01:16:31.529Z,14
2022-08-22T01:17:31.551Z,15
2022-08-22T01:18:31.552Z,15
2022-08-22T01:19:31.552Z,14
2022-08-22T01:20:31.552Z,14
2022-08-22T01:21:31.553Z,17
2022-08-22T01:22:31.553Z,16
2022-08-22T01:23:31.554Z,15
2022-08-22T01:24:31.554Z,16
2022-08-22T01:25:31.554Z,13
2022-08-22T01:26:31.532Z,13
2022-08-22T01:27:31.533Z,14
2022-08-22T01:28:31.533Z,12
2022-08-22T01:29:31.533Z,13
2022-08-22T01:30:31.534Z,13
2022-08-22T01:31:31.534Z,15
2022-08-22T01:32:31.557Z,13
2022-08-22T01:33:31.557Z,13
2022-08-22T01:34:31.557Z,12
2022-08-22T01:35:31.558Z,14
2022-08-22T01:36:31.558Z,13
2022-08-22T01:37:31.558Z,12
2022-08-22T01:38:31.559Z,14
2022-08-22T01:39:31.559Z,10
2022-08-22T01:40:31.560Z,9
2022-08-22T01:41:31.585Z,9
2022-08-22T01:42:31.538Z,10
2022-08-22T01:43:31.538Z,8
2022-08-22T01:44:31.539Z,7
2022-08-22T01:45:31.539Z,10
2022-08-22T01:46:31.539Z,9
2022-08-22T01:47:31.562Z,10
2022-08-22T01:48:31.562Z,13
2022-08-22T01:49:31.563Z,11
2022-08-22T01:50:31.571Z,9
2022-08-22T01:51:31.563Z,10
2022-08-22T01:52:31.564Z,10
2022-08-22T01:53:31.564Z,11
2022-08-22T01:54:31.565Z,12
2022-08-22T01:55:31.565Z,12
2022-08-22T01:56:31.565Z,11
2022-08-22T01:57:31.543Z,13
2022-08-22T01:58:31.544Z,12
2022-08-22T01:59:31.544Z,15
2022-08-22T02:00:31.544Z,15
2022-08-22T02:01:31.544Z,17
2022-08-22T02:02:31.578Z,15
2022-08-22T02:03:31.568Z,14
2022-08-22T02:04:31.568Z,14
2022-08-22T02:05:31.584Z,13
2022-08-22T02:06:31.569Z,13
2022-08-22T02:07:31.569Z,12
2022-08-22T02:08:31.570Z,15
2022-08-22T02:09:31.570Z,13
2022-08-22T02:10:31.570Z,13
2022-08-22T02:11:31.571Z,13
2022-08-22T02:12:31.548Z,13
2022-08-22T02:13:31.549Z,14
2022-08-22T02:14:31.549Z,13
2022-08-22T02:15:31.549Z,15
2022-08-22T02:16:31.550Z,15
2022-08-22T02:17:31.550Z,15
2022-08-22T02:18:31.573Z,15
2022-08-22T02:19:31.573Z,14
2022-08-22T02:20:31.573Z,13
2022-08-22T02:21:31.574Z,11
2022-08-22T02:22:31.574Z,13
2022-08-22T02:23:31.575Z,13
2022-08-22T02:24:31.575Z,11
2022-08-22T02:25:31.575Z,11
2022-08-22T02:26:31.576Z,11
2022-08-22T02:27:31.554Z,12
2022-08-22T02:28:31.554Z,12
2022-08-22T02:29:31.554Z,12
2022-08-22T02:30:31.554Z,11
2022-08-22T02:31:31.555Z,9
2022-08-22T02:32:31.555Z,10
2022-08-22T02:33:31.578Z,13
2022-08-22T02:34:31.578Z,10
2022-08-22T02:35:31.579Z,11
2022-08-22T02:36:31.579Z,11
2022-08-22T02:37:31.579Z,10
2022-08-22T02:38:31.580Z,11
2022-08-22T02:39:31.580Z,11
2022-08-22T02:40:31.580Z,11
2022-08-22T02:41:31.581Z,12
2022-08-22T02:42:31.646Z,12
2022-08-22T02:43:31.559Z,13
2022-08-22T02:44:31.559Z,12
2022-08-22T02:45:31.582Z,12
2022-08-22T02:46:31.560Z,13
2022-08-22T02:47:31.560Z,14
2022-08-22T02:48:31.594Z,12
2022-08-22T02:49:31.583Z,12
2022-08-22T02:50:31.584Z,12
2022-08-22T02:51:31.600Z,12
2022-08-22T02:52:31.584Z,12
2022-08-22T02:53:31.585Z,12
2022-08-22T02:54:31.585Z,11
2022-08-22T02:55:31.586Z,11
2022-08-22T02:56:31.586Z,12
2022-08-22T02:57:31.586Z,13
2022-08-22T02:58:32.654Z,12
2022-08-22T02:59:31.564Z,13
2022-08-22T03:00:31.565Z,13
2022-08-22T03:01:31.565Z,10
2022-08-22T03:02:31.565Z,15
2022-08-22T03:03:31.588Z,15
2022-08-22T03:04:31.589Z,15
2022-08-22T03:05:31.589Z,14
2022-08-22T03:06:31.613Z,17
2022-08-22T03:07:31.590Z,14
2022-08-22T03:08:31.590Z,13
2022-08-22T03:09:31.615Z,11
2022-08-22T03:10:31.591Z,12
2022-08-22T03:11:31.591Z,13
2022-08-22T03:12:31.592Z,13
2022-08-22T03:13:31.569Z,15
2022-08-22T03:14:31.570Z,15
2022-08-22T03:15:31.570Z,14
2022-08-22T03:16:31.570Z,12
2022-08-22T03:17:31.571Z,13
2022-08-22T03:18:31.571Z,15
2022-08-22T03:19:31.594Z,13
2022-08-22T03:20:31.594Z,15
2022-08-22T03:21:31.594Z,13
2022-08-22T03:22:31.595Z,13
2022-08-22T03:23:31.595Z,13
2022-08-22T03:24:31.595Z,11
2022-08-22T03:25:31.596Z,15
2022-08-22T03:26:31.596Z,14
2022-08-22T03:27:31.596Z,14
2022-08-22T03:28:31.574Z,16
2022-08-22T03:29:31.575Z,16
2022-08-22T03:30:31.575Z,18
2022-08-22T03:32:31.576Z,14
2022-08-22T03:33:31.576Z,16
2022-08-22T03:34:31.599Z,18
2022-08-22T03:35:31.599Z,18
2022-08-22T03:36:31.600Z,17
2022-08-22T03:37:31.600Z,16
2022-08-22T03:38:31.600Z,18
2022-08-22T03:39:31.600Z,19
2022-08-22T03:40:31.601Z,17
2022-08-22T03:41:31.601Z,14
2022-08-22T03:42:31.602Z,17
2022-08-22T03:43:31.579Z,17
2022-08-22T03:44:31.580Z,15
2022-08-22T03:45:31.580Z,16
2022-08-22T03:46:31.580Z,16
2022-08-22T03:47:31.581Z,12
2022-08-22T03:48:31.581Z,14
2022-08-22T03:49:31.604Z,14
2022-08-22T03:50:31.604Z,12
2022-08-22T03:51:31.604Z,14
2022-08-22T03:52:31.605Z,15
2022-08-22T03:53:31.605Z,15
2022-08-22T03:54:31.606Z,9
2022-08-22T03:55:31.671Z,14
2022-08-22T03:56:31.606Z,13
2022-08-22T03:57:31.607Z,13
2022-08-22T03:58:31.700Z,10
2022-08-22T03:59:31.585Z,10
2022-08-22T04:00:31.585Z,14
2022-08-22T04:01:31.585Z,13
2022-08-22T04:03:31.586Z,13
2022-08-22T04:04:31.609Z,15
2022-08-22T04:05:31.609Z,14
2022-08-22T04:06:31.609Z,16
2022-08-22T04:07:31.610Z,14
2022-08-22T04:08:31.610Z,17
2022-08-22T04:09:31.611Z,18
2022-08-22T04:10:31.611Z,21
2022-08-22T04:11:31.611Z,15
2022-08-22T04:12:31.612Z,16
2022-08-22T04:13:31.637Z,16
2022-08-22T04:14:31.590Z,16
2022-08-22T04:15:31.590Z,18
2022-08-22T04:16:31.590Z,18
2022-08-22T04:17:31.591Z,18
2022-08-22T04:18:31.591Z,18
2022-08-22T04:19:31.614Z,20
2022-08-22T04:20:31.614Z,20
2022-08-22T04:21:31.614Z,19
2022-08-22T04:22:31.623Z,23
2022-08-22T04:23:31.615Z,23
2022-08-22T04:24:31.615Z,20
2022-08-22T04:25:31.616Z,22
2022-08-22T04:26:31.616Z,23
2022-08-22T04:27:31.617Z,17
2022-08-22T04:28:31.617Z,18
2022-08-22T04:29:31.595Z,20
2022-08-22T04:30:31.595Z,18
2022-08-22T04:31:31.595Z,21
2022-08-22T04:32:31.596Z,17
2022-08-22T04:33:31.596Z,18
2022-08-22T04:34:31.596Z,19
2022-08-22T04:35:31.619Z,19
2022-08-22T04:36:31.619Z,23
2022-08-22T04:37:31.620Z,18
2022-08-22T04:38:31.620Z,21
2022-08-22T04:39:31.620Z,19
2022-08-22T04:40:31.621Z,20
2022-08-22T04:41:31.621Z,19
2022-08-22T04:42:31.622Z,20
2022-08-22T04:43:31.622Z,23
2022-08-22T04:44:31.600Z,20
2022-08-22T04:45:31.600Z,21
2022-08-22T04:46:31.600Z,19
2022-08-22T04:47:31.601Z,19
2022-08-22T04:48:31.601Z,20
2022-08-22T04:49:31.601Z,20
2022-08-22T04:50:31.624Z,21
2022-08-22T04:51:31.624Z,19
2022-08-22T04:52:31.625Z,23
2022-08-22T04:53:31.625Z,23
2022-08-22T04:54:31.626Z,19
2022-08-22T04:55:31.626Z,22
2022-08-22T04:56:31.626Z,20
2022-08-22T04:57:31.627Z,21
2022-08-22T04:58:31.627Z,19
2022-08-22T04:59:31.605Z,17
2022-08-22T05:00:31.605Z,20
2022-08-22T05:01:31.605Z,22
2022-08-22T05:02:31.606Z,28
2022-08-22T05:03:31.606Z,34
2022-08-22T05:04:31.606Z,23
2022-08-22T05:05:31.629Z,20
2022-08-22T05:06:31.630Z,25
2022-08-22T05:07:31.630Z,19
2022-08-22T05:08:31.630Z,19
2022-08-22T05:09:31.631Z,21
2022-08-22T05:10:31.631Z,23
2022-08-22T05:11:31.631Z,18
2022-08-22T05:12:31.632Z,23
2022-08-22T05:13:31.632Z,23
2022-08-22T05:14:31.610Z,19
2022-08-22T05:15:31.610Z,21
2022-08-22T05:16:31.610Z,19
2022-08-22T05:17:31.611Z,20
2022-08-22T05:18:31.611Z,19
2022-08-22T05:19:31.611Z,22
2022-08-22T05:20:31.634Z,19
2022-08-22T05:21:31.634Z,19
2022-08-22T05:22:31.635Z,21
2022-08-22T05:23:31.635Z,19
2022-08-22T05:24:31.636Z,20
2022-08-22T05:25:31.636Z,15
2022-08-22T05:26:31.636Z,16
2022-08-22T05:27:31.637Z,18
2022-08-22T05:28:31.637Z,16
2022-08-22T05:29:31.615Z,19
2022-08-22T05:30:31.615Z,15
2022-08-22T05:31:31.616Z,20
2022-08-22T05:32:31.616Z,20
2022-08-22T05:33:31.616Z,17
2022-08-22T05:34:31.617Z,27
2022-08-22T05:35:31.639Z,24
2022-08-22T05:36:31.639Z,21
2022-08-22T05:37:31.640Z,22
2022-08-22T05:38:31.641Z,26
2022-08-22T05:39:31.641Z,22
2022-08-22T05:40:31.641Z,26
2022-08-22T05:41:31.681Z,27
2022-08-22T05:42:31.642Z,26
2022-08-22T05:43:31.643Z,28
2022-08-22T05:44:31.643Z,28
2022-08-22T05:45:31.620Z,32
2022-08-22T05:46:31.621Z,28
2022-08-22T05:47:31.621Z,24
2022-08-22T05:48:31.621Z,27
2022-08-22T05:49:31.622Z,25
2022-08-22T05:50:31.622Z,21
2022-08-22T05:51:31.645Z,23
2022-08-22T05:52:31.645Z,26
2022-08-22T05:53:31.646Z,25
2022-08-22T05:54:31.646Z,26
2022-08-22T05:55:31.646Z,25
2022-08-22T05:56:31.647Z,25
2022-08-22T05:57:31.647Z,25
2022-08-22T05:58:31.648Z,26
2022-08-22T05:59:31.648Z,29
2022-08-22T06:00:31.626Z,38
2022-08-22T06:01:31.626Z,33
2022-08-22T06:02:31.627Z,29
2022-08-22T06:03:31.627Z,25
2022-08-22T06:04:31.627Z,24
2022-08-22T06:05:31.628Z,24
2022-08-22T06:06:31.650Z,31
2022-08-22T06:07:31.651Z,27
2022-08-22T06:08:31.651Z,27
2022-08-22T06:09:31.652Z,29
2022-08-22T06:10:31.652Z,35
2022-08-22T06:11:31.652Z,33
2022-08-22T06:12:31.653Z,37
2022-08-22T06:13:31.653Z,37
2022-08-22T06:14:31.654Z,33
2022-08-22T06:15:31.632Z,35
2022-08-22T06:16:31.632Z,37
2022-08-22T06:17:31.632Z,31
2022-08-22T06:18:31.633Z,36
2022-08-22T06:19:31.633Z,38
2022-08-22T06:20:31.634Z,37
2022-08-22T06:21:31.656Z,44
2022-08-22T06:22:31.657Z,39
2022-08-22T06:23:31.657Z,39
2022-08-22T06:24:31.658Z,35
2022-08-22T06:25:31.658Z,37
2022-08-22T06:26:31.658Z,43
2022-08-22T06:27:31.659Z,40
2022-08-22T06:28:31.659Z,47
2022-08-22T06:29:31.660Z,40
2022-08-22T06:30:31.638Z,47
2022-08-22T06:31:31.638Z,39
2022-08-22T06:32:31.638Z,36
2022-08-22T06:33:31.639Z,33
2022-08-22T06:34:31.639Z,35
2022-08-22T06:35:31.640Z,30
2022-08-22T06:36:31.663Z,32
2022-08-22T06:37:31.663Z,33
2022-08-22T06:38:31.663Z,31
2022-08-22T06:39:31.664Z,37
2022-08-22T06:40:31.664Z,38
2022-08-22T06:41:31.665Z,40
2022-08-22T06:42:31.690Z,42
2022-08-22T06:43:31.665Z,37
2022-08-22T06:44:31.666Z,39
2022-08-22T06:45:31.667Z,39
2022-08-22T06:46:31.644Z,37
2022-08-22T06:47:31.645Z,33
2022-08-22T06:48:31.645Z,35
2022-08-22T06:49:31.646Z,28
2022-08-22T06:50:31.646Z,30
2022-08-22T06:51:31.646Z,32
2022-08-22T06:52:31.669Z,34
2022-08-22T06:53:31.669Z,38
2022-08-22T06:54:31.670Z,33
2022-08-22T06:55:31.670Z,29
2022-08-22T06:56:31.671Z,32
2022-08-22T06:57:31.671Z,33
2022-08-22T06:58:31.672Z,35
2022-08-22T06:59:31.672Z,27
2022-08-22T07:00:31.673Z,25
2022-08-22T07:01:31.651Z,24
2022-08-22T07:02:31.651Z,24
2022-08-22T07:03:31.651Z,28
2022-08-22T07:04:31.652Z,26
2022-08-22T07:05:31.652Z,28
2022-08-22T07:06:31.653Z,32
2022-08-22T07:07:31.675Z,31
2022-08-22T07:08:31.676Z,35
2022-08-22T07:09:31.677Z,36
2022-08-22T07:10:31.677Z,29
2022-08-22T07:11:31.677Z,33
2022-08-22T07:12:31.678Z,31
2022-08-22T07:13:31.678Z,35
2022-08-22T07:14:31.679Z,32
2022-08-22T07:15:31.679Z,30
2022-08-22T07:16:31.657Z,29
2022-08-22T07:17:31.658Z,20
2022-08-22T07:18:31.658Z,26
2022-08-22T07:19:31.658Z,24
2022-08-22T07:20:31.659Z,22
2022-08-22T07:21:31.659Z,27
2022-08-22T07:22:31.682Z,30
2022-08-22T07:23:31.682Z,33
2022-08-22T07:24:31.683Z,27
2022-08-22T07:25:31.683Z,28
2022-08-22T07:26:31.684Z,39
2022-08-22T07:27:31.684Z,37
2022-08-22T07:28:31.685Z,31
2022-08-22T07:29:31.686Z,35
2022-08-22T07:30:31.686Z,48
2022-08-22T07:31:31.664Z,44
2022-08-22T07:32:31.664Z,43
2022-08-22T07:33:31.665Z,45
2022-08-22T07:34:31.665Z,40
2022-08-22T07:35:31.666Z,37
2022-08-22T07:36:31.666Z,43
2022-08-22T07:37:31.689Z,36
2022-08-22T07:38:31.689Z,40
2022-08-22T07:39:31.690Z,42
2022-08-22T07:40:31.690Z,40
2022-08-22T07:41:31.691Z,44
2022-08-22T07:42:31.691Z,40
2022-08-22T07:43:31.756Z,41
2022-08-22T07:44:31.692Z,39
2022-08-22T07:45:31.693Z,38
2022-08-22T07:46:31.694Z,38
2022-08-22T07:47:31.671Z,46
2022-08-22T07:48:31.672Z,32
2022-08-22T07:49:31.672Z,24
2022-08-22T07:50:31.673Z,28
2022-08-22T07:51:31.673Z,30
2022-08-22T07:52:31.673Z,30
2022-08-22T07:53:31.696Z,32
2022-08-22T07:54:31.697Z,28
2022-08-22T07:55:31.697Z,32
2022-08-22T07:56:31.698Z,30
2022-08-22T07:57:31.698Z,26
2022-08-22T07:58:31.699Z,23
2022-08-22T07:59:31.699Z,28
2022-08-22T08:00:31.700Z,26
2022-08-22T08:01:31.700Z,29
2022-08-22T08:02:31.678Z,36
2022-08-22T08:03:31.679Z,40
2022-08-22T08:04:31.679Z,30
2022-08-22T08:05:31.680Z,28
2022-08-22T08:06:31.680Z,33
2022-08-22T08:07:31.680Z,41
2022-08-22T08:08:31.703Z,42
2022-08-22T08:09:31.704Z,37
2022-08-22T08:10:31.704Z,39
2022-08-22T08:11:31.705Z,40
2022-08-22T08:12:31.705Z,42
2022-08-22T08:13:31.706Z,41
2022-08-22T08:14:31.707Z,40
2022-08-22T08:15:31.707Z,37
2022-08-22T08:16:31.708Z,36
2022-08-22T08:17:31.686Z,43
2022-08-22T08:18:31.686Z,38
2022-08-22T08:19:31.687Z,37
2022-08-22T08:20:31.687Z,32
2022-08-22T08:21:31.688Z,37
2022-08-22T08:22:31.688Z,36
2022-08-22T08:23:31.711Z,33
2022-08-22T08:24:31.712Z,38
2022-08-22T08:25:31.712Z,47
2022-08-22T08:26:31.713Z,50
2022-08-22T08:27:31.713Z,40
2022-08-22T08:28:31.714Z,37
2022-08-22T08:29:31.715Z,40
2022-08-22T08:30:31.715Z,43
2022-08-22T08:31:31.716Z,46
2022-08-22T08:32:31.694Z,40
2022-08-22T08:33:31.694Z,43
2022-08-22T08:34:31.695Z,34
2022-08-22T08:35:31.695Z,43
2022-08-22T08:36:31.696Z,49
2022-08-22T08:37:31.696Z,50
2022-08-22T08:38:31.719Z,41
2022-08-22T08:39:31.720Z,45
2022-08-22T08:40:31.720Z,44
2022-08-22T08:41:31.721Z,43
2022-08-22T08:42:31.721Z,40
2022-08-22T08:43:31.722Z,41
2022-08-22T08:44:31.787Z,49
2022-08-22T08:45:31.723Z,61
2022-08-22T08:46:31.724Z,52
2022-08-22T08:47:31.725Z,53
2022-08-22T08:48:31.702Z,53
2022-08-22T08:49:31.703Z,51
2022-08-22T08:50:31.703Z,51
2022-08-22T08:51:31.704Z,53
2022-08-22T08:52:31.704Z,42
2022-08-22T08:53:31.705Z,40
2022-08-22T08:54:31.728Z,47
2022-08-22T08:55:31.728Z,47
2022-08-22T08:56:31.729Z,51
2022-08-22T08:57:31.730Z,52
2022-08-22T08:58:31.730Z,56
2022-08-22T08:59:31.731Z,54
2022-08-22T09:00:31.731Z,54
2022-08-22T09:01:31.732Z,51
2022-08-22T09:02:31.732Z,55
2022-08-22T09:03:31.710Z,49
2022-08-22T09:04:31.711Z,55
2022-08-22T09:05:31.712Z,55
2022-08-22T09:06:31.712Z,46
2022-08-22T09:07:31.713Z,47
2022-08-22T09:08:31.713Z,50
2022-08-22T09:09:31.736Z,50
2022-08-22T09:10:31.737Z,41
2022-08-22T09:11:31.745Z,35
2022-08-22T09:12:31.738Z,39
2022-08-22T09:13:31.739Z,34
2022-08-22T09:14:31.739Z,32
2022-08-22T09:15:31.740Z,39
2022-08-22T09:16:31.740Z,45
2022-08-22T09:17:31.741Z,44
2022-08-22T09:18:31.719Z,38
2022-08-22T09:19:31.719Z,40
2022-08-22T09:20:31.720Z,40
2022-08-22T09:21:31.721Z,37
2022-08-22T09:22:31.721Z,37
2022-08-22T09:23:31.722Z,37
2022-08-22T09:24:31.745Z,44
2022-08-22T09:25:31.745Z,51
2022-08-22T09:26:31.746Z,42
2022-08-22T09:27:31.746Z,39
2022-08-22T09:28:31.747Z,39
2022-08-22T09:29:31.747Z,37
2022-08-22T09:30:31.748Z,40
2022-08-22T09:31:31.749Z,28
2022-08-22T09:32:31.749Z,30
2022-08-22T09:33:31.727Z,27
2022-08-22T09:34:31.728Z,32
2022-08-22T09:35:31.729Z,38
2022-08-22T09:36:31.729Z,41
2022-08-22T09:37:31.730Z,39
2022-08-22T09:38:31.730Z,34
2022-08-22T09:39:31.753Z,38
2022-08-22T09:40:31.754Z,31
2022-08-22T09:41:31.754Z,44
2022-08-22T09:42:31.755Z,40
2022-08-22T09:43:31.756Z,50
2022-08-22T09:44:31.756Z,41
2022-08-22T09:45:31.757Z,37
2022-08-22T09:46:31.758Z,44
2022-08-22T09:47:31.758Z,37
2022-08-22T09:48:31.736Z,39
2022-08-22T09:49:31.737Z,33
2022-08-22T09:50:31.737Z,40
2022-08-22T09:51:31.738Z,41
2022-08-22T09:52:31.738Z,45
2022-08-22T09:53:31.739Z,45
2022-08-22T09:54:31.762Z,35
2022-08-22T09:55:31.762Z,48
2022-08-22T09:56:31.763Z,52
2022-08-22T09:57:31.764Z,50
2022-08-22T09:58:31.764Z,48
2022-08-22T09:59:31.765Z,39
2022-08-22T10:00:31.790Z,51
2022-08-22T10:01:31.766Z,48
2022-08-22T10:02:31.767Z,47
2022-08-22T10:03:31.768Z,51
2022-08-22T10:04:31.745Z,53
2022-08-22T10:05:31.746Z,50
2022-08-22T10:06:31.746Z,59
2022-08-22T10:07:31.747Z,51
2022-08-22T10:08:31.748Z,62
2022-08-22T10:09:31.771Z,47
2022-08-22T10:10:31.771Z,51
2022-08-22T10:11:31.772Z,44
2022-08-22T10:12:31.837Z,51
2022-08-22T10:13:31.773Z,53
2022-08-22T10:14:31.774Z,42
2022-08-22T10:15:31.775Z,51
2022-08-22T10:16:31.775Z,52
2022-08-22T10:17:31.775Z,48
2022-08-22T10:18:31.776Z,50
2022-08-22T10:19:31.754Z,48
2022-08-22T10:20:31.755Z,41
2022-08-22T10:21:31.755Z,50
2022-08-22T10:22:31.756Z,42
2022-08-22T10:23:31.756Z,47
2022-08-22T10:24:31.757Z,46
2022-08-22T10:25:31.780Z,58
2022-08-22T10:26:31.780Z,64
2022-08-22T10:27:31.781Z,64
2022-08-22T10:28:31.782Z,66
2022-08-22T10:29:31.783Z,58
2022-08-22T10:30:31.783Z,73
2022-08-22T10:31:31.784Z,60
2022-08-22T10:32:31.784Z,73
2022-08-22T10:33:31.785Z,66
2022-08-22T10:34:31.763Z,51
2022-08-22T10:35:31.763Z,58
2022-08-22T10:36:31.764Z,67
2022-08-22T10:37:31.765Z,70
2022-08-22T10:38:31.765Z,63
2022-08-22T10:39:31.766Z,67
2022-08-22T10:40:31.789Z,62
2022-08-22T10:41:31.789Z,57
2022-08-22T10:42:31.790Z,61
2022-08-22T10:43:31.791Z,60
2022-08-22T10:44:31.791Z,61
2022-08-22T10:45:31.792Z,63
2022-08-22T10:46:31.793Z,58
2022-08-22T10:47:31.793Z,48
2022-08-22T10:48:31.794Z,44
2022-08-22T10:49:31.859Z,41
2022-08-22T10:50:31.772Z,41
2022-08-22T10:51:31.773Z,44
2022-08-22T10:52:31.796Z,44
2022-08-22T10:53:31.774Z,48
2022-08-22T10:54:31.775Z,51
2022-08-22T10:55:31.800Z,50
2022-08-22T10:56:31.798Z,52
2022-08-22T10:57:31.799Z,47
2022-08-22T10:58:31.808Z,46
2022-08-22T10:59:31.800Z,47
2022-08-22T11:00:31.801Z,59
2022-08-22T11:01:31.801Z,50
2022-08-22T11:02:31.802Z,56
2022-08-22T11:03:31.803Z,51
2022-08-22T11:04:31.803Z,66
2022-08-22T11:05:31.781Z,58
2022-08-22T11:06:31.782Z,63
2022-08-22T11:07:31.782Z,67
2022-08-22T11:08:31.783Z,70
2022-08-22T11:09:31.784Z,68
2022-08-22T11:10:31.784Z,55
2022-08-22T11:11:31.807Z,54
2022-08-22T11:12:31.808Z,50
2022-08-22T11:13:31.817Z,55
2022-08-22T11:14:31.809Z,58
2022-08-22T11:15:31.809Z,57
2022-08-22T11:16:31.810Z,57
2022-08-22T11:17:31.811Z,49
2022-08-22T11:18:31.811Z,52
2022-08-22T11:19:31.812Z,58
2022-08-22T11:20:31.790Z,53
2022-08-22T11:21:31.791Z,55
2022-08-22T11:22:31.791Z,57
2022-08-22T11:23:31.792Z,53
2022-08-22T11:24:31.793Z,53
2022-08-22T11:25:31.793Z,45
2022-08-22T11:26:31.816Z,58
2022-08-22T11:27:31.817Z,53
2022-08-22T11:28:31.817Z,55
2022-08-22T11:29:31.818Z,46
2022-08-22T11:30:31.819Z,61
2022-08-22T11:31:31.819Z,52
2022-08-22T11:32:31.820Z,44
2022-08-22T11:33:31.821Z,45
2022-08-22T11:34:31.821Z,53
2022-08-22T11:35:31.799Z,49
2022-08-22T11:36:31.800Z,55
2022-08-22T11:37:31.800Z,51
2022-08-22T11:38:31.801Z,59
2022-08-22T11:39:31.802Z,54
2022-08-22T11:40:31.802Z,58
2022-08-22T11:41:31.825Z,55
2022-08-22T11:42:31.826Z,50
2022-08-22T11:43:31.826Z,47
2022-08-22T11:44:31.827Z,52
2022-08-22T11:45:31.828Z,57
2022-08-22T11:46:31.828Z,44
2022-08-22T11:47:31.829Z,38
2022-08-22T11:48:31.829Z,38
2022-08-22T11:49:31.830Z,50
2022-08-22T11:50:31.855Z,52
2022-08-22T11:51:31.809Z,53
2022-08-22T11:52:31.809Z,57
2022-08-22T11:53:31.810Z,67
2022-08-22T11:54:31.810Z,58
2022-08-22T11:55:31.811Z,65
2022-08-22T11:56:31.834Z,60
2022-08-22T11:57:31.834Z,59
2022-08-22T11:58:31.835Z,56
2022-08-22T11:59:31.876Z,49
2022-08-22T12:00:31.837Z,57
2022-08-22T12:01:31.837Z,51
2022-08-22T12:02:31.838Z,48
2022-08-22T12:03:31.838Z,53
2022-08-22T12:04:31.839Z,50
2022-08-22T12:05:31.839Z,57
2022-08-22T12:06:31.818Z,56
2022-08-22T12:07:31.818Z,54
2022-08-22T12:08:31.819Z,60
2022-08-22T12:09:32.654Z,58
2022-08-22T12:10:31.820Z,59
2022-08-22T12:11:31.821Z,52
2022-08-22T12:12:31.844Z,51
2022-08-22T12:13:31.844Z,53
2022-08-22T12:14:31.845Z,61
2022-08-22T12:15:31.845Z,63
2022-08-22T12:16:31.846Z,56
2022-08-22T12:17:31.847Z,57
2022-08-22T12:18:31.847Z,50
2022-08-22T12:19:31.848Z,49
2022-08-22T12:20:31.849Z,53
2022-08-22T12:25:31.829Z,73
2022-08-22T12:28:31.853Z,58
2022-08-22T12:29:31.854Z,63
2022-08-22T12:30:31.855Z,71
2022-08-22T12:31:31.855Z,68
2022-08-22T12:32:38.432Z,71
2022-08-22T12:33:31.856Z,59
2022-08-22T12:34:31.834Z,62
2022-08-22T12:35:31.835Z,62
2022-08-22T12:36:31.835Z,60
2022-08-22T12:37:31.836Z,63
2022-08-22T12:38:31.859Z,60
2022-08-22T12:39:31.860Z,65
2022-08-22T12:40:31.861Z,63
2022-08-22T12:41:31.861Z,62
2022-08-22T12:42:31.862Z,59
2022-08-22T12:43:31.862Z,57
2022-08-22T12:44:31.863Z,56
2022-08-22T12:45:31.863Z,52
2022-08-22T12:46:31.864Z,60
2022-08-22T12:47:31.842Z,52
2022-08-22T12:48:31.843Z,64
2022-08-22T12:49:31.843Z,67
2022-08-22T12:50:31.844Z,67
2022-08-22T12:51:31.844Z,55
2022-08-22T12:52:31.845Z,56
2022-08-22T12:53:31.868Z,49
2022-08-22T12:54:31.868Z,47
2022-08-22T12:55:31.869Z,53
2022-08-22T12:56:31.870Z,57
2022-08-22T12:57:31.870Z,67
2022-08-22T12:58:31.871Z,61
2022-08-22T12:59:31.871Z,56
2022-08-22T13:00:31.872Z,59
2022-08-22T13:01:31.873Z,53
2022-08-22T13:02:31.851Z,65
2022-08-22T13:03:31.851Z,54
2022-08-22T13:04:31.852Z,55
2022-08-22T13:05:31.852Z,61
2022-08-22T13:06:31.853Z,58
2022-08-22T13:07:31.854Z,60
2022-08-22T13:08:31.877Z,52
2022-08-22T13:09:31.877Z,45
2022-08-22T13:10:31.878Z,51
2022-08-22T13:11:31.878Z,35
2022-08-22T13:12:31.879Z,40
2022-08-22T13:13:31.879Z,54
2022-08-22T13:14:31.880Z,43
2022-08-22T13:15:31.881Z,55
2022-08-22T13:16:31.881Z,61
2022-08-22T13:17:31.859Z,54
2022-08-22T13:18:31.860Z,47
2022-08-22T13:19:31.861Z,52
2022-08-22T13:20:31.861Z,50
2022-08-22T13:21:31.862Z,54
2022-08-22T13:22:31.885Z,54
2022-08-22T13:23:31.885Z,61
2022-08-22T13:24:31.886Z,50
2022-08-22T13:25:31.905Z,50
2022-08-22T13:26:31.887Z,52
2022-08-22T13:27:31.887Z,57
2022-08-22T13:28:31.888Z,54
2022-08-22T13:29:31.889Z,59
2022-08-22T13:30:31.889Z,63
2022-08-22T13:31:31.890Z,53
2022-08-22T13:32:31.868Z,62
2022-08-22T13:33:31.869Z,62
2022-08-22T13:34:31.869Z,68
2022-08-22T13:35:31.870Z,71
2022-08-22T13:36:31.870Z,70
2022-08-22T13:37:31.871Z,72
2022-08-22T13:38:31.894Z,69
2022-08-22T13:39:31.894Z,63
2022-08-22T13:40:31.895Z,61
2022-08-22T13:41:31.896Z,74
2022-08-22T13:42:31.896Z,65
2022-08-22T13:43:31.897Z,52
2022-08-22T13:44:31.897Z,53
2022-08-22T13:45:31.898Z,50
2022-08-22T13:46:31.898Z,59
2022-08-22T13:47:31.877Z,58
2022-08-22T13:48:31.877Z,60
2022-08-22T13:49:31.878Z,50
2022-08-22T13:50:31.878Z,51
2022-08-22T13:51:31.879Z,49
2022-08-22T13:52:31.879Z,51
2022-08-22T13:53:31.903Z,53
2022-08-22T13:54:31.903Z,49
2022-08-22T13:55:31.904Z,48
2022-08-22T13:56:31.904Z,52
2022-08-22T13:57:31.905Z,51
2022-08-22T13:58:31.906Z,43
2022-08-22T13:59:31.906Z,49
2022-08-22T14:00:31.907Z,56
2022-08-22T14:01:31.907Z,57
2022-08-22T14:02:31.885Z,57
2022-08-22T14:03:31.886Z,57
2022-08-22T14:04:31.887Z,66
2022-08-22T14:05:31.887Z,54
2022-08-22T14:06:31.888Z,53
2022-08-22T14:07:31.888Z,59
2022-08-22T14:08:31.911Z,60
2022-08-22T14:09:31.912Z,54
2022-08-22T14:10:31.913Z,58
2022-08-22T14:11:31.913Z,50
2022-08-22T14:12:31.914Z,56
2022-08-22T14:13:31.939Z,51
2022-08-22T14:14:31.915Z,42
2022-08-22T14:15:31.916Z,44
2022-08-22T14:16:31.917Z,36
2022-08-22T14:17:31.894Z,39
2022-08-22T14:18:31.895Z,36
2022-08-22T14:19:31.895Z,38
2022-08-22T14:20:31.896Z,45
2022-08-22T14:21:31.897Z,49
2022-08-22T14:22:31.919Z,45
2022-08-22T14:23:31.920Z,43
2022-08-22T14:24:31.921Z,40